sensor_id;sensor_type;location;lat;lon;timestamp;P1;durP1;ratioP1;P2;durP2;ratioP2
11797;SDS011;5956;51.428;6.682;2023-05-21T00:01:52;11.38;;;10.10;;
11797;SDS011;5956;51.428;6.682;2023-05-21T00:04:19;11.18;;;9.55;;
11797;SDS011;5956;51.428;6.682;2023-05-21T00:06:45;11.13;;;10.03;;
11797;SDS011;5956;51.428;6.682;2023-05-21T00:09:11;10.87;;;9.87;;
11797;SDS011;5956;51.428;6.682;2023-05-21T00:11:38;10.87;;;9.77;;
11797;SDS011;5956;51.428;6.682;2023-05-21T00:14:06;11.43;;;10.33;;
11797;SDS011;5956;51.428;6.682;2023-05-21T00:16:32;9.98;;;9.13;;
11797;SDS011;5956;51.428;6.682;2023-05-21T00:18:59;9.93;;;9.00;;
11797;SDS011;5956;51.428;6.682;2023-05-21T00:21:26;9.40;;;8.50;;
11797;SDS011;5956;51.428;6.682;2023-05-21T00:23:53;11.40;;;9.43;;
11797;SDS011;5956;51.428;6.682;2023-05-21T00:26:20;9.80;;;9.00;;
11797;SDS011;5956;51.428;6.682;2023-05-21T00:28:48;9.25;;;8.38;;
11797;SDS011;5956;51.428;6.682;2023-05-21T00:31:16;8.77;;;7.97;;
11797;SDS011;5956;51.428;6.682;2023-05-21T00:33:43;8.55;;;7.80;;
11797;SDS011;5956;51.428;6.682;2023-05-21T00:36:09;9.07;;;7.50;;
11797;SDS011;5956;51.428;6.682;2023-05-21T00:38:38;9.60;;;8.68;;
11797;SDS011;5956;51.428;6.682;2023-05-21T00:41:07;9.13;;;8.23;;
11797;SDS011;5956;51.428;6.682;2023-05-21T00:43:34;9.20;;;8.40;;
11797;SDS011;5956;51.428;6.682;2023-05-21T00:46:04;9.80;;;7.60;;
11797;SDS011;5956;51.428;6.682;2023-05-21T00:48:32;8.48;;;7.80;;
11797;SDS011;5956;51.428;6.682;2023-05-21T00:50:58;8.43;;;7.63;;
11797;SDS011;5956;51.428;6.682;2023-05-21T00:53:25;8.67;;;7.87;;
11797;SDS011;5956;51.428;6.682;2023-05-21T00:55:51;8.10;;;7.33;;
11797;SDS011;5956;51.428;6.682;2023-05-21T00:58:18;8.00;;;7.30;;
11797;SDS011;5956;51.428;6.682;2023-05-21T01:00:45;8.60;;;7.63;;
11797;SDS011;5956;51.428;6.682;2023-05-21T01:03:11;8.23;;;7.43;;
11797;SDS011;5956;51.428;6.682;2023-05-21T01:05:40;8.40;;;7.60;;
11797;SDS011;5956;51.428;6.682;2023-05-21T01:08:09;8.27;;;7.57;;
11797;SDS011;5956;51.428;6.682;2023-05-21T01:10:36;8.10;;;7.40;;
11797;SDS011;5956;51.428;6.682;2023-05-21T01:13:03;9.03;;;8.10;;
11797;SDS011;5956;51.428;6.682;2023-05-21T01:15:29;8.67;;;7.80;;
11797;SDS011;5956;51.428;6.682;2023-05-21T01:17:56;9.37;;;7.97;;
11797;SDS011;5956;51.428;6.682;2023-05-21T01:20:22;7.93;;;7.23;;
11797;SDS011;5956;51.428;6.682;2023-05-21T01:22:52;7.53;;;6.93;;
11797;SDS011;5956;51.428;6.682;2023-05-21T01:25:19;7.90;;;7.17;;
11797;SDS011;5956;51.428;6.682;2023-05-21T01:27:45;7.67;;;7.07;;
11797;SDS011;5956;51.428;6.682;2023-05-21T01:30:12;7.23;;;6.67;;
11797;SDS011;5956;51.428;6.682;2023-05-21T01:32:40;7.97;;;7.37;;
11797;SDS011;5956;51.428;6.682;2023-05-21T01:35:09;7.80;;;7.17;;
11797;SDS011;5956;51.428;6.682;2023-05-21T01:37:36;7.80;;;7.20;;
11797;SDS011;5956;51.428;6.682;2023-05-21T01:40:09;7.60;;;6.93;;
11797;SDS011;5956;51.428;6.682;2023-05-21T01:42:36;8.70;;;7.80;;
11797;SDS011;5956;51.428;6.682;2023-05-21T01:45:04;8.40;;;7.70;;
11797;SDS011;5956;51.428;6.682;2023-05-21T01:47:32;8.53;;;7.70;;
11797;SDS011;5956;51.428;6.682;2023-05-21T01:49:59;8.03;;;7.33;;
11797;SDS011;5956;51.428;6.682;2023-05-21T01:52:26;8.63;;;7.40;;
11797;SDS011;5956;51.428;6.682;2023-05-21T01:54:54;10.10;;;7.50;;
11797;SDS011;5956;51.428;6.682;2023-05-21T01:57:22;8.07;;;7.43;;
11797;SDS011;5956;51.428;6.682;2023-05-21T01:59:49;8.40;;;7.60;;
11797;SDS011;5956;51.428;6.682;2023-05-21T02:02:17;8.97;;;8.10;;
11797;SDS011;5956;51.428;6.682;2023-05-21T02:04:43;8.30;;;7.60;;
11797;SDS011;5956;51.428;6.682;2023-05-21T02:07:10;8.50;;;7.10;;
11797;SDS011;5956;51.428;6.682;2023-05-21T02:09:38;8.03;;;7.23;;
11797;SDS011;5956;51.428;6.682;2023-05-21T02:12:05;7.47;;;6.77;;
11797;SDS011;5956;51.428;6.682;2023-05-21T02:14:34;7.33;;;6.73;;
11797;SDS011;5956;51.428;6.682;2023-05-21T02:17:02;7.70;;;7.10;;
11797;SDS011;5956;51.428;6.682;2023-05-21T02:19:29;9.10;;;7.23;;
11797;SDS011;5956;51.428;6.682;2023-05-21T02:21:55;7.83;;;7.20;;
11797;SDS011;5956;51.428;6.682;2023-05-21T02:24:21;7.90;;;7.20;;
11797;SDS011;5956;51.428;6.682;2023-05-21T02:26:48;8.07;;;7.37;;
11797;SDS011;5956;51.428;6.682;2023-05-21T02:29:16;8.07;;;7.47;;
11797;SDS011;5956;51.428;6.682;2023-05-21T02:31:44;7.90;;;7.17;;
11797;SDS011;5956;51.428;6.682;2023-05-21T02:34:10;7.83;;;7.13;;
11797;SDS011;5956;51.428;6.682;2023-05-21T02:36:37;8.13;;;7.33;;
11797;SDS011;5956;51.428;6.682;2023-05-21T02:39:05;7.30;;;6.70;;
11797;SDS011;5956;51.428;6.682;2023-05-21T02:41:31;7.50;;;6.80;;
11797;SDS011;5956;51.428;6.682;2023-05-21T02:43:58;7.47;;;6.77;;
11797;SDS011;5956;51.428;6.682;2023-05-21T02:46:25;8.03;;;6.30;;
11797;SDS011;5956;51.428;6.682;2023-05-21T02:48:52;6.80;;;6.20;;
11797;SDS011;5956;51.428;6.682;2023-05-21T02:51:19;7.70;;;6.97;;
11797;SDS011;5956;51.428;6.682;2023-05-21T02:53:45;7.40;;;6.80;;
11797;SDS011;5956;51.428;6.682;2023-05-21T02:56:12;7.30;;;6.77;;
11797;SDS011;5956;51.428;6.682;2023-05-21T02:58:39;7.33;;;6.60;;
11797;SDS011;5956;51.428;6.682;2023-05-21T03:01:05;7.03;;;6.43;;
11797;SDS011;5956;51.428;6.682;2023-05-21T03:03:32;7.60;;;7.00;;
11797;SDS011;5956;51.428;6.682;2023-05-21T03:06:00;8.03;;;7.33;;
11797;SDS011;5956;51.428;6.682;2023-05-21T03:08:26;8.23;;;7.10;;
11797;SDS011;5956;51.428;6.682;2023-05-21T03:10:52;7.50;;;6.80;;
11797;SDS011;5956;51.428;6.682;2023-05-21T03:13:19;8.33;;;7.53;;
11797;SDS011;5956;51.428;6.682;2023-05-21T03:15:45;8.43;;;7.60;;
11797;SDS011;5956;51.428;6.682;2023-05-21T03:18:12;7.07;;;6.57;;
11797;SDS011;5956;51.428;6.682;2023-05-21T03:20:38;7.30;;;6.70;;
11797;SDS011;5956;51.428;6.682;2023-05-21T03:23:09;7.83;;;7.13;;
11797;SDS011;5956;51.428;6.682;2023-05-21T03:25:36;7.43;;;6.73;;
11797;SDS011;5956;51.428;6.682;2023-05-21T03:28:03;8.10;;;7.40;;
11797;SDS011;5956;51.428;6.682;2023-05-21T03:30:30;8.00;;;7.30;;
11797;SDS011;5956;51.428;6.682;2023-05-21T03:32:57;7.57;;;6.97;;
11797;SDS011;5956;51.428;6.682;2023-05-21T03:35:23;8.27;;;6.70;;
11797;SDS011;5956;51.428;6.682;2023-05-21T03:37:50;8.77;;;7.07;;
11797;SDS011;5956;51.428;6.682;2023-05-21T03:40:18;7.67;;;6.97;;
11797;SDS011;5956;51.428;6.682;2023-05-21T03:42:45;7.73;;;6.83;;
11797;SDS011;5956;51.428;6.682;2023-05-21T03:45:12;8.47;;;7.07;;
11797;SDS011;5956;51.428;6.682;2023-05-21T03:47:38;7.67;;;6.80;;
11797;SDS011;5956;51.428;6.682;2023-05-21T03:50:06;8.07;;;7.27;;
11797;SDS011;5956;51.428;6.682;2023-05-21T03:52:33;7.60;;;6.93;;
11797;SDS011;5956;51.428;6.682;2023-05-21T03:55:00;7.40;;;6.80;;
11797;SDS011;5956;51.428;6.682;2023-05-21T03:57:28;6.83;;;6.30;;
11797;SDS011;5956;51.428;6.682;2023-05-21T03:59:54;7.73;;;7.10;;
11797;SDS011;5956;51.428;6.682;2023-05-21T04:02:24;7.73;;;6.83;;
11797;SDS011;5956;51.428;6.682;2023-05-21T04:04:50;8.07;;;7.37;;
11797;SDS011;5956;51.428;6.682;2023-05-21T04:07:17;7.37;;;6.77;;
11797;SDS011;5956;51.428;6.682;2023-05-21T04:09:44;9.23;;;7.33;;
11797;SDS011;5956;51.428;6.682;2023-05-21T04:12:11;7.27;;;6.77;;
11797;SDS011;5956;51.428;6.682;2023-05-21T04:14:39;7.70;;;6.80;;
11797;SDS011;5956;51.428;6.682;2023-05-21T04:17:05;8.00;;;7.27;;
11797;SDS011;5956;51.428;6.682;2023-05-21T04:19:33;7.47;;;6.93;;
11797;SDS011;5956;51.428;6.682;2023-05-21T04:21:59;8.07;;;7.40;;
11797;SDS011;5956;51.428;6.682;2023-05-21T04:24:26;7.90;;;6.77;;
11797;SDS011;5956;51.428;6.682;2023-05-21T04:26:52;7.20;;;6.60;;
11797;SDS011;5956;51.428;6.682;2023-05-21T04:29:20;10.40;;;7.47;;
11797;SDS011;5956;51.428;6.682;2023-05-21T04:31:47;7.77;;;7.07;;
11797;SDS011;5956;51.428;6.682;2023-05-21T04:34:14;7.97;;;7.20;;
11797;SDS011;5956;51.428;6.682;2023-05-21T04:36:43;8.07;;;7.37;;
11797;SDS011;5956;51.428;6.682;2023-05-21T04:39:10;8.00;;;7.30;;
11797;SDS011;5956;51.428;6.682;2023-05-21T04:41:37;8.07;;;7.30;;
11797;SDS011;5956;51.428;6.682;2023-05-21T04:44:06;7.70;;;7.10;;
11797;SDS011;5956;51.428;6.682;2023-05-21T04:46:33;7.80;;;7.00;;
11797;SDS011;5956;51.428;6.682;2023-05-21T04:49:01;7.80;;;7.17;;
11797;SDS011;5956;51.428;6.682;2023-05-21T04:51:28;7.83;;;7.07;;
11797;SDS011;5956;51.428;6.682;2023-05-21T04:53:54;7.90;;;7.30;;
11797;SDS011;5956;51.428;6.682;2023-05-21T04:56:22;6.97;;;6.37;;
11797;SDS011;5956;51.428;6.682;2023-05-21T04:58:50;9.00;;;8.20;;
11797;SDS011;5956;51.428;6.682;2023-05-21T05:01:16;7.80;;;7.20;;
11797;SDS011;5956;51.428;6.682;2023-05-21T05:03:44;7.90;;;7.07;;
11797;SDS011;5956;51.428;6.682;2023-05-21T05:06:11;8.50;;;7.80;;
11797;SDS011;5956;51.428;6.682;2023-05-21T05:08:38;7.87;;;7.13;;
11797;SDS011;5956;51.428;6.682;2023-05-21T05:11:06;9.03;;;8.33;;
11797;SDS011;5956;51.428;6.682;2023-05-21T05:13:32;8.40;;;7.70;;
11797;SDS011;5956;51.428;6.682;2023-05-21T05:15:59;8.33;;;7.73;;
11797;SDS011;5956;51.428;6.682;2023-05-21T05:18:25;11.43;;;7.77;;
11797;SDS011;5956;51.428;6.682;2023-05-21T05:20:52;8.57;;;7.77;;
11797;SDS011;5956;51.428;6.682;2023-05-21T05:23:20;7.47;;;6.77;;
11797;SDS011;5956;51.428;6.682;2023-05-21T05:25:46;8.33;;;7.60;;
11797;SDS011;5956;51.428;6.682;2023-05-21T05:28:13;8.47;;;7.77;;
11797;SDS011;5956;51.428;6.682;2023-05-21T05:30:39;8.80;;;8.03;;
11797;SDS011;5956;51.428;6.682;2023-05-21T05:33:06;9.23;;;8.43;;
11797;SDS011;5956;51.428;6.682;2023-05-21T05:35:32;8.27;;;7.50;;
11797;SDS011;5956;51.428;6.682;2023-05-21T05:37:59;9.20;;;8.30;;
11797;SDS011;5956;51.428;6.682;2023-05-21T05:40:26;7.90;;;7.20;;
11797;SDS011;5956;51.428;6.682;2023-05-21T05:42:53;8.97;;;8.10;;
11797;SDS011;5956;51.428;6.682;2023-05-21T05:45:19;7.53;;;6.93;;
11797;SDS011;5956;51.428;6.682;2023-05-21T05:47:46;9.10;;;8.30;;
11797;SDS011;5956;51.428;6.682;2023-05-21T05:50:12;9.73;;;8.77;;
11797;SDS011;5956;51.428;6.682;2023-05-21T05:52:39;9.77;;;8.90;;
11797;SDS011;5956;51.428;6.682;2023-05-21T05:55:05;10.32;;;8.77;;
11797;SDS011;5956;51.428;6.682;2023-05-21T05:57:34;8.47;;;7.77;;
11797;SDS011;5956;51.428;6.682;2023-05-21T06:00:01;8.57;;;7.77;;
11797;SDS011;5956;51.428;6.682;2023-05-21T06:02:27;7.70;;;7.10;;
11797;SDS011;5956;51.428;6.682;2023-05-21T06:04:54;8.40;;;7.70;;
11797;SDS011;5956;51.428;6.682;2023-05-21T06:07:20;9.20;;;7.90;;
11797;SDS011;5956;51.428;6.682;2023-05-21T06:09:47;9.00;;;8.10;;
11797;SDS011;5956;51.428;6.682;2023-05-21T06:12:13;9.67;;;8.00;;
11797;SDS011;5956;51.428;6.682;2023-05-21T06:14:42;8.83;;;7.70;;
11797;SDS011;5956;51.428;6.682;2023-05-21T06:17:10;8.20;;;7.60;;
11797;SDS011;5956;51.428;6.682;2023-05-21T06:19:36;8.73;;;8.03;;
11797;SDS011;5956;51.428;6.682;2023-05-21T06:22:03;8.30;;;7.50;;
11797;SDS011;5956;51.428;6.682;2023-05-21T06:24:29;8.90;;;8.10;;
11797;SDS011;5956;51.428;6.682;2023-05-21T06:26:56;8.07;;;7.33;;
11797;SDS011;5956;51.428;6.682;2023-05-21T06:29:22;9.13;;;8.33;;
11797;SDS011;5956;51.428;6.682;2023-05-21T06:31:50;9.25;;;8.40;;
11797;SDS011;5956;51.428;6.682;2023-05-21T06:34:17;9.00;;;8.27;;
11797;SDS011;5956;51.428;6.682;2023-05-21T06:36:43;9.80;;;8.90;;
11797;SDS011;5956;51.428;6.682;2023-05-21T06:39:09;10.13;;;9.15;;
11797;SDS011;5956;51.428;6.682;2023-05-21T06:41:36;10.45;;;9.45;;
11797;SDS011;5956;51.428;6.682;2023-05-21T06:44:03;10.57;;;9.48;;
11797;SDS011;5956;51.428;6.682;2023-05-21T06:46:30;15.27;;;13.45;;
11797;SDS011;5956;51.428;6.682;2023-05-21T06:48:57;14.02;;;11.35;;
11797;SDS011;5956;51.428;6.682;2023-05-21T06:51:25;11.10;;;10.10;;
11797;SDS011;5956;51.428;6.682;2023-05-21T06:53:51;11.88;;;10.63;;
11797;SDS011;5956;51.428;6.682;2023-05-21T06:56:18;12.38;;;9.20;;
11797;SDS011;5956;51.428;6.682;2023-05-21T06:58:46;9.27;;;8.38;;
11797;SDS011;5956;51.428;6.682;2023-05-21T07:01:12;9.75;;;8.85;;
11797;SDS011;5956;51.428;6.682;2023-05-21T07:03:39;10.45;;;9.45;;
11797;SDS011;5956;51.428;6.682;2023-05-21T07:06:06;9.55;;;8.73;;
11797;SDS011;5956;51.428;6.682;2023-05-21T07:08:33;9.68;;;8.77;;
11797;SDS011;5956;51.428;6.682;2023-05-21T07:10:59;10.80;;;9.40;;
11797;SDS011;5956;51.428;6.682;2023-05-21T07:13:26;9.55;;;8.65;;
11797;SDS011;5956;51.428;6.682;2023-05-21T07:15:52;13.82;;;9.43;;
11797;SDS011;5956;51.428;6.682;2023-05-21T07:18:19;10.60;;;8.55;;
11797;SDS011;5956;51.428;6.682;2023-05-21T07:20:45;9.55;;;8.75;;
11797;SDS011;5956;51.428;6.682;2023-05-21T07:23:13;8.45;;;7.75;;
11797;SDS011;5956;51.428;6.682;2023-05-21T07:25:40;9.02;;;8.23;;
11797;SDS011;5956;51.428;6.682;2023-05-21T07:28:06;10.32;;;9.07;;
11797;SDS011;5956;51.428;6.682;2023-05-21T07:30:32;9.07;;;8.30;;
11797;SDS011;5956;51.428;6.682;2023-05-21T07:32:59;11.25;;;10.10;;
11797;SDS011;5956;51.428;6.682;2023-05-21T07:35:25;10.50;;;9.27;;
11797;SDS011;5956;51.428;6.682;2023-05-21T07:37:53;10.50;;;9.48;;
11797;SDS011;5956;51.428;6.682;2023-05-21T07:40:21;9.32;;;8.48;;
11797;SDS011;5956;51.428;6.682;2023-05-21T07:42:47;10.75;;;9.45;;
11797;SDS011;5956;51.428;6.682;2023-05-21T07:45:13;10.75;;;9.75;;
11797;SDS011;5956;51.428;6.682;2023-05-21T07:47:41;7.93;;;6.20;;
11797;SDS011;5956;51.428;6.682;2023-05-21T07:50:08;6.13;;;5.53;;
11797;SDS011;5956;51.428;6.682;2023-05-21T07:52:35;7.00;;;6.30;;
11797;SDS011;5956;51.428;6.682;2023-05-21T07:55:01;7.53;;;6.88;;
11797;SDS011;5956;51.428;6.682;2023-05-21T07:57:29;6.90;;;6.13;;
11797;SDS011;5956;51.428;6.682;2023-05-21T07:59:56;6.90;;;6.30;;
11797;SDS011;5956;51.428;6.682;2023-05-21T08:02:22;8.85;;;7.10;;
11797;SDS011;5956;51.428;6.682;2023-05-21T08:04:49;8.98;;;8.07;;
11797;SDS011;5956;51.428;6.682;2023-05-21T08:07:16;7.18;;;6.47;;
11797;SDS011;5956;51.428;6.682;2023-05-21T08:09:43;8.38;;;7.65;;
11797;SDS011;5956;51.428;6.682;2023-05-21T08:12:11;8.05;;;7.03;;
11797;SDS011;5956;51.428;6.682;2023-05-21T08:14:41;7.75;;;6.72;;
11797;SDS011;5956;51.428;6.682;2023-05-21T08:17:07;8.95;;;7.93;;
11797;SDS011;5956;51.428;6.682;2023-05-21T08:19:34;8.55;;;7.85;;
11797;SDS011;5956;51.428;6.682;2023-05-21T08:22:01;9.65;;;8.75;;
11797;SDS011;5956;51.428;6.682;2023-05-21T08:24:27;9.45;;;7.75;;
11797;SDS011;5956;51.428;6.682;2023-05-21T08:26:54;8.98;;;8.10;;
11797;SDS011;5956;51.428;6.682;2023-05-21T08:29:20;8.70;;;7.80;;
11797;SDS011;5956;51.428;6.682;2023-05-21T08:31:48;10.57;;;9.43;;
11797;SDS011;5956;51.428;6.682;2023-05-21T08:34:15;8.93;;;8.13;;
11797;SDS011;5956;51.428;6.682;2023-05-21T08:36:42;8.50;;;7.80;;
11797;SDS011;5956;51.428;6.682;2023-05-21T08:39:10;8.48;;;7.78;;
11797;SDS011;5956;51.428;6.682;2023-05-21T08:41:37;9.23;;;8.38;;
11797;SDS011;5956;51.428;6.682;2023-05-21T08:44:05;8.55;;;7.75;;
11797;SDS011;5956;51.428;6.682;2023-05-21T08:46:35;10.98;;;9.90;;
11797;SDS011;5956;51.428;6.682;2023-05-21T08:49:07;13.00;;;11.13;;
11797;SDS011;5956;51.428;6.682;2023-05-21T08:51:36;11.18;;;10.13;;
11797;SDS011;5956;51.428;6.682;2023-05-21T08:54:03;13.45;;;10.10;;
11797;SDS011;5956;51.428;6.682;2023-05-21T08:56:30;10.68;;;9.73;;
11797;SDS011;5956;51.428;6.682;2023-05-21T08:58:57;11.52;;;10.43;;
11797;SDS011;5956;51.428;6.682;2023-05-21T09:01:23;10.93;;;9.93;;
11797;SDS011;5956;51.428;6.682;2023-05-21T09:03:51;10.95;;;9.93;;
11797;SDS011;5956;51.428;6.682;2023-05-21T09:06:19;10.32;;;9.30;;
11797;SDS011;5956;51.428;6.682;2023-05-21T09:08:48;10.73;;;9.65;;
11797;SDS011;5956;51.428;6.682;2023-05-21T09:11:15;9.75;;;8.95;;
11797;SDS011;5956;51.428;6.682;2023-05-21T09:13:41;10.52;;;9.43;;
11797;SDS011;5956;51.428;6.682;2023-05-21T09:16:08;9.98;;;9.07;;
11797;SDS011;5956;51.428;6.682;2023-05-21T09:18:35;10.05;;;9.02;;
11797;SDS011;5956;51.428;6.682;2023-05-21T09:21:21;10.85;;;9.75;;
11797;SDS011;5956;51.428;6.682;2023-05-21T09:23:52;11.30;;;10.07;;
11797;SDS011;5956;51.428;6.682;2023-05-21T09:26:20;9.55;;;8.73;;
11797;SDS011;5956;51.428;6.682;2023-05-21T09:28:46;11.18;;;10.20;;
11797;SDS011;5956;51.428;6.682;2023-05-21T09:31:13;11.25;;;10.07;;
11797;SDS011;5956;51.428;6.682;2023-05-21T09:33:44;9.80;;;9.07;;
11797;SDS011;5956;51.428;6.682;2023-05-21T09:36:11;12.50;;;10.05;;
11797;SDS011;5956;51.428;6.682;2023-05-21T09:38:37;11.45;;;10.48;;
11797;SDS011;5956;51.428;6.682;2023-05-21T09:41:05;10.68;;;9.77;;
11797;SDS011;5956;51.428;6.682;2023-05-21T09:43:32;11.00;;;10.07;;
11797;SDS011;5956;51.428;6.682;2023-05-21T09:45:59;11.15;;;10.25;;
11797;SDS011;5956;51.428;6.682;2023-05-21T09:48:31;10.70;;;9.70;;
11797;SDS011;5956;51.428;6.682;2023-05-21T09:51:05;11.15;;;10.18;;
11797;SDS011;5956;51.428;6.682;2023-05-21T09:53:32;13.43;;;12.13;;
11797;SDS011;5956;51.428;6.682;2023-05-21T09:55:58;11.48;;;10.38;;
11797;SDS011;5956;51.428;6.682;2023-05-21T09:58:26;11.40;;;10.35;;
11797;SDS011;5956;51.428;6.682;2023-05-21T10:00:53;12.85;;;11.73;;
11797;SDS011;5956;51.428;6.682;2023-05-21T10:03:21;11.70;;;10.57;;
11797;SDS011;5956;51.428;6.682;2023-05-21T10:05:48;12.13;;;11.02;;
11797;SDS011;5956;51.428;6.682;2023-05-21T10:08:16;12.68;;;11.40;;
11797;SDS011;5956;51.428;6.682;2023-05-21T10:10:43;13.10;;;11.27;;
11797;SDS011;5956;51.428;6.682;2023-05-21T10:13:11;10.90;;;9.93;;
11797;SDS011;5956;51.428;6.682;2023-05-21T10:15:41;10.88;;;9.98;;
11797;SDS011;5956;51.428;6.682;2023-05-21T10:18:09;11.32;;;10.23;;
11797;SDS011;5956;51.428;6.682;2023-05-21T10:20:36;11.32;;;10.18;;
11797;SDS011;5956;51.428;6.682;2023-05-21T10:23:03;11.85;;;10.65;;
11797;SDS011;5956;51.428;6.682;2023-05-21T10:25:30;11.77;;;10.77;;
11797;SDS011;5956;51.428;6.682;2023-05-21T10:27:57;12.00;;;10.63;;
11797;SDS011;5956;51.428;6.682;2023-05-21T10:30:23;11.82;;;10.65;;
11797;SDS011;5956;51.428;6.682;2023-05-21T10:32:51;12.05;;;10.95;;
11797;SDS011;5956;51.428;6.682;2023-05-21T10:35:20;11.15;;;10.00;;
11797;SDS011;5956;51.428;6.682;2023-05-21T10:37:48;11.00;;;9.90;;
11797;SDS011;5956;51.428;6.682;2023-05-21T10:40:15;11.88;;;10.82;;
11797;SDS011;5956;51.428;6.682;2023-05-21T10:45:24;13.60;;;10.85;;
11797;SDS011;5956;51.428;6.682;2023-05-21T10:47:57;11.88;;;10.70;;
11797;SDS011;5956;51.428;6.682;2023-05-21T10:50:29;12.38;;;11.32;;
11797;SDS011;5956;51.428;6.682;2023-05-21T10:53:00;12.27;;;10.98;;
11797;SDS011;5956;51.428;6.682;2023-05-21T10:55:37;11.40;;;10.40;;
11797;SDS011;5956;51.428;6.682;2023-05-21T10:58:15;12.00;;;10.73;;
11797;SDS011;5956;51.428;6.682;2023-05-21T11:00:44;11.32;;;10.23;;
11797;SDS011;5956;51.428;6.682;2023-05-21T11:03:12;11.27;;;10.38;;
11797;SDS011;5956;51.428;6.682;2023-05-21T11:05:49;11.13;;;10.20;;
11797;SDS011;5956;51.428;6.682;2023-05-21T11:08:23;11.27;;;10.38;;
11797;SDS011;5956;51.428;6.682;2023-05-21T11:10:50;10.70;;;9.73;;
11797;SDS011;5956;51.428;6.682;2023-05-21T11:13:17;11.35;;;10.25;;
11797;SDS011;5956;51.428;6.682;2023-05-21T11:21:30;11.55;;;10.60;;
11797;SDS011;5956;51.428;6.682;2023-05-21T11:24:00;10.93;;;10.02;;
11797;SDS011;5956;51.428;6.682;2023-05-21T11:26:28;10.82;;;9.82;;
11797;SDS011;5956;51.428;6.682;2023-05-21T11:29:07;11.35;;;10.35;;
11797;SDS011;5956;51.428;6.682;2023-05-21T11:31:34;10.98;;;9.98;;
11797;SDS011;5956;51.428;6.682;2023-05-21T11:34:12;11.95;;;10.93;;
11797;SDS011;5956;51.428;6.682;2023-05-21T11:36:41;11.23;;;10.15;;
11797;SDS011;5956;51.428;6.682;2023-05-21T11:39:09;11.52;;;10.43;;
11797;SDS011;5956;51.428;6.682;2023-05-21T11:41:52;11.68;;;10.60;;
11797;SDS011;5956;51.428;6.682;2023-05-21T11:44:20;12.20;;;11.05;;
11797;SDS011;5956;51.428;6.682;2023-05-21T11:46:47;11.55;;;10.20;;
11797;SDS011;5956;51.428;6.682;2023-05-21T11:49:14;10.88;;;9.82;;
11797;SDS011;5956;51.428;6.682;2023-05-21T11:51:42;11.57;;;10.57;;
11797;SDS011;5956;51.428;6.682;2023-05-21T11:54:09;11.32;;;10.23;;
11797;SDS011;5956;51.428;6.682;2023-05-21T11:56:36;11.75;;;10.68;;
11797;SDS011;5956;51.428;6.682;2023-05-21T11:59:12;11.77;;;10.70;;
11797;SDS011;5956;51.428;6.682;2023-05-21T12:01:40;11.85;;;10.75;;
11797;SDS011;5956;51.428;6.682;2023-05-21T12:04:07;11.70;;;10.70;;
11797;SDS011;5956;51.428;6.682;2023-05-21T12:06:35;11.25;;;10.35;;
11797;SDS011;5956;51.428;6.682;2023-05-21T12:09:03;11.85;;;10.75;;
11797;SDS011;5956;51.428;6.682;2023-05-21T12:11:30;10.95;;;10.00;;
11797;SDS011;5956;51.428;6.682;2023-05-21T12:13:56;12.32;;;11.30;;
11797;SDS011;5956;51.428;6.682;2023-05-21T12:16:23;12.07;;;10.85;;
11797;SDS011;5956;51.428;6.682;2023-05-21T12:18:49;11.55;;;10.55;;
11797;SDS011;5956;51.428;6.682;2023-05-21T12:21:16;11.75;;;10.75;;
11797;SDS011;5956;51.428;6.682;2023-05-21T12:23:42;11.50;;;10.60;;
11797;SDS011;5956;51.428;6.682;2023-05-21T12:26:10;11.57;;;10.57;;
11797;SDS011;5956;51.428;6.682;2023-05-21T12:28:38;12.10;;;10.88;;
11797;SDS011;5956;51.428;6.682;2023-05-21T12:31:05;13.18;;;11.90;;
11797;SDS011;5956;51.428;6.682;2023-05-21T12:33:32;12.80;;;11.68;;
11797;SDS011;5956;51.428;6.682;2023-05-21T12:35:59;12.70;;;11.48;;
11797;SDS011;5956;51.428;6.682;2023-05-21T12:38:29;12.60;;;11.50;;
11797;SDS011;5956;51.428;6.682;2023-05-21T12:40:56;12.30;;;11.10;;
11797;SDS011;5956;51.428;6.682;2023-05-21T12:43:31;13.38;;;12.07;;
11797;SDS011;5956;51.428;6.682;2023-05-21T12:45:57;13.45;;;12.35;;
11797;SDS011;5956;51.428;6.682;2023-05-21T12:48:24;12.65;;;11.60;;
11797;SDS011;5956;51.428;6.682;2023-05-21T12:50:50;12.18;;;11.13;;
11797;SDS011;5956;51.428;6.682;2023-05-21T12:53:17;12.48;;;11.40;;
11797;SDS011;5956;51.428;6.682;2023-05-21T12:55:44;12.90;;;11.80;;
11797;SDS011;5956;51.428;6.682;2023-05-21T12:58:11;12.40;;;11.30;;
11797;SDS011;5956;51.428;6.682;2023-05-21T13:00:41;13.02;;;11.77;;
11797;SDS011;5956;51.428;6.682;2023-05-21T13:03:08;12.05;;;11.00;;
11797;SDS011;5956;51.428;6.682;2023-05-21T13:05:38;13.30;;;12.20;;
11797;SDS011;5956;51.428;6.682;2023-05-21T13:08:05;12.45;;;11.30;;
11797;SDS011;5956;51.428;6.682;2023-05-21T13:10:31;12.35;;;11.25;;
11797;SDS011;5956;51.428;6.682;2023-05-21T13:12:58;12.00;;;11.00;;
11797;SDS011;5956;51.428;6.682;2023-05-21T13:15:25;12.75;;;11.75;;
11797;SDS011;5956;51.428;6.682;2023-05-21T13:17:53;11.93;;;10.90;;
11797;SDS011;5956;51.428;6.682;2023-05-21T13:20:20;11.55;;;10.57;;
11797;SDS011;5956;51.428;6.682;2023-05-21T13:22:50;12.05;;;11.07;;
11797;SDS011;5956;51.428;6.682;2023-05-21T13:25:17;12.73;;;11.63;;
11797;SDS011;5956;51.428;6.682;2023-05-21T13:27:45;12.95;;;11.65;;
11797;SDS011;5956;51.428;6.682;2023-05-21T13:30:12;11.93;;;10.93;;
11797;SDS011;5956;51.428;6.682;2023-05-21T13:32:39;13.15;;;11.90;;
11797;SDS011;5956;51.428;6.682;2023-05-21T13:35:07;12.10;;;11.10;;
11797;SDS011;5956;51.428;6.682;2023-05-21T13:37:35;12.57;;;11.48;;
11797;SDS011;5956;51.428;6.682;2023-05-21T13:40:02;12.45;;;11.45;;
11797;SDS011;5956;51.428;6.682;2023-05-21T13:42:29;12.32;;;11.32;;
11797;SDS011;5956;51.428;6.682;2023-05-21T13:44:56;12.52;;;11.35;;
11797;SDS011;5956;51.428;6.682;2023-05-21T13:47:23;11.82;;;10.70;;
11797;SDS011;5956;51.428;6.682;2023-05-21T13:49:50;12.75;;;11.38;;
11797;SDS011;5956;51.428;6.682;2023-05-21T13:52:18;12.50;;;11.40;;
11797;SDS011;5956;51.428;6.682;2023-05-21T13:54:45;12.70;;;11.70;;
11797;SDS011;5956;51.428;6.682;2023-05-21T13:57:12;13.27;;;12.18;;
11797;SDS011;5956;51.428;6.682;2023-05-21T13:59:38;12.48;;;11.38;;
11797;SDS011;5956;51.428;6.682;2023-05-21T14:02:05;12.50;;;11.40;;
11797;SDS011;5956;51.428;6.682;2023-05-21T14:04:32;12.55;;;11.65;;
11797;SDS011;5956;51.428;6.682;2023-05-21T14:06:59;11.38;;;10.38;;
11797;SDS011;5956;51.428;6.682;2023-05-21T14:09:28;12.90;;;11.77;;
11797;SDS011;5956;51.428;6.682;2023-05-21T14:11:55;12.07;;;11.05;;
11797;SDS011;5956;51.428;6.682;2023-05-21T14:14:22;12.95;;;11.65;;
11797;SDS011;5956;51.428;6.682;2023-05-21T14:16:49;11.65;;;10.75;;
11797;SDS011;5956;51.428;6.682;2023-05-21T14:19:16;12.65;;;11.40;;
11797;SDS011;5956;51.428;6.682;2023-05-21T14:21:43;12.35;;;11.32;;
11797;SDS011;5956;51.428;6.682;2023-05-21T14:24:10;12.90;;;11.68;;
11797;SDS011;5956;51.428;6.682;2023-05-21T14:26:38;11.45;;;10.40;;
11797;SDS011;5956;51.428;6.682;2023-05-21T14:29:05;11.95;;;10.95;;
11797;SDS011;5956;51.428;6.682;2023-05-21T14:31:32;11.98;;;11.07;;
11797;SDS011;5956;51.428;6.682;2023-05-21T14:33:59;11.88;;;10.80;;
11797;SDS011;5956;51.428;6.682;2023-05-21T14:36:26;12.07;;;11.07;;
11797;SDS011;5956;51.428;6.682;2023-05-21T14:38:53;12.10;;;11.00;;
11797;SDS011;5956;51.428;6.682;2023-05-21T14:41:22;11.30;;;10.20;;
11797;SDS011;5956;51.428;6.682;2023-05-21T14:43:50;12.80;;;11.70;;
11797;SDS011;5956;51.428;6.682;2023-05-21T14:46:16;12.50;;;11.40;;
11797;SDS011;5956;51.428;6.682;2023-05-21T14:48:43;11.82;;;10.73;;
11797;SDS011;5956;51.428;6.682;2023-05-21T14:51:10;12.40;;;11.23;;
11797;SDS011;5956;51.428;6.682;2023-05-21T14:53:37;12.70;;;11.68;;
11797;SDS011;5956;51.428;6.682;2023-05-21T14:56:04;12.25;;;11.05;;
11797;SDS011;5956;51.428;6.682;2023-05-21T14:58:30;11.50;;;10.55;;
11797;SDS011;5956;51.428;6.682;2023-05-21T15:00:58;12.90;;;11.70;;